Terminal Aerodrome Forecast
Issued by NWS

Home | Current Version | Previous Version | Graphics & Text | Print | Product List | Glossary On
Versions: 1 2 3 4 5 6 7 8 9 10 11 12 13 14
000
FTUS43 KMPX 211120
TAFRNH
TAF
KRNH 211120Z 2112/2212 VRB03KT P6SM BKN035 BKN100
     FM211500 11004KT P6SM VCSH SCT040 BKN080
     FM211900 17005KT P6SM SCT040 BKN100
     FM212000 30004KT P6SM BKN050 PROB30 2121/2203 6SM TSRA OVC040CB
     FM220700 33003KT P6SM SCT250=

USA.gov is the U.S. government's official web portal to all federal, state and local government web resources and services.